createdAt,value
2023-02-09T00:01:31.510Z,78.77
2023-02-09T00:04:00.231Z,78.81
2023-02-09T00:06:29.914Z,78.73
2023-02-09T00:08:58.741Z,79.10
2023-02-09T00:11:48.486Z,78.73
2023-02-09T00:14:21.410Z,79.71
2023-02-09T00:16:49.772Z,79.32
2023-02-09T00:19:18.328Z,78.97
2023-02-09T00:21:45.612Z,79.08
2023-02-09T00:24:14.183Z,79.14
2023-02-09T00:26:42.456Z,79.76
2023-02-09T00:29:10.522Z,79.55
2023-02-09T00:31:38.053Z,79.54
2023-02-09T00:34:05.665Z,79.54
2023-02-09T00:36:33.628Z,79.27
2023-02-09T00:39:01.236Z,79.13
2023-02-09T00:41:46.550Z,79.83
2023-02-09T00:44:13.672Z,79.62
2023-02-09T00:46:40.614Z,79.29
2023-02-09T00:49:07.654Z,79.35
2023-02-09T00:51:34.957Z,79.48
2023-02-09T00:54:02.306Z,79.90
2023-02-09T00:56:29.282Z,79.87
2023-02-09T00:58:56.304Z,79.18
2023-02-09T01:01:23.462Z,79.61
2023-02-09T01:03:50.466Z,79.94
2023-02-09T01:06:17.455Z,79.87
2023-02-09T01:08:44.413Z,80.13
2023-02-09T01:11:15.422Z,80.09
2023-02-09T01:13:43.757Z,80.56
2023-02-09T01:16:15.341Z,79.95
2023-02-09T01:18:43.282Z,79.83
2023-02-09T01:21:20.863Z,79.89
2023-02-09T01:23:48.975Z,80.07
2023-02-09T01:26:17.339Z,80.22
2023-02-09T01:28:44.859Z,80.22
2023-02-09T01:31:24.256Z,80.43
2023-02-09T01:33:53.472Z,80.68
2023-02-09T01:36:21.221Z,80.46
2023-02-09T01:38:48.596Z,80.33
2023-02-09T01:41:15.689Z,80.01
2023-02-09T01:44:11.748Z,80.21
2023-02-09T01:46:39.806Z,80.55
2023-02-09T01:49:20.250Z,80.09
2023-02-09T01:51:57.552Z,80.64
2023-02-09T01:54:39.474Z,80.17
2023-02-09T01:57:12.321Z,80.78
2023-02-09T01:59:43.014Z,80.28
2023-02-09T02:02:11.117Z,80.09
2023-02-09T02:04:39.284Z,80.31
2023-02-09T02:07:30.058Z,80.49
2023-02-09T02:09:57.236Z,80.36
2023-02-09T02:12:25.119Z,80.35
2023-02-09T02:14:52.208Z,80.70
2023-02-09T02:17:40.204Z,80.01
2023-02-09T02:20:42.829Z,80.02
2023-02-09T02:23:25.949Z,80.74
2023-02-09T02:26:07.750Z,80.74
2023-02-09T02:29:04.961Z,81.32
2023-02-09T02:32:08.570Z,80.97
2023-02-09T02:34:44.198Z,80.68
2023-02-09T02:37:48.211Z,80.98
2023-02-09T02:40:45.035Z,81.20
2023-02-09T02:43:37.771Z,81.01
2023-02-09T02:46:27.989Z,81.05
2023-02-09T02:49:05.691Z,81.03
2023-02-09T02:51:40.835Z,80.63
2023-02-09T02:54:17.283Z,80.74
2023-02-09T02:56:53.733Z,80.72
2023-02-09T02:59:30.990Z,81.46
2023-02-09T03:02:33.585Z,81.09
2023-02-09T03:05:02.240Z,80.95
2023-02-09T03:07:29.280Z,81.50
2023-02-09T03:09:57.459Z,81.06
2023-02-09T03:12:48.904Z,80.78
2023-02-09T03:15:27.011Z,81.03
2023-02-09T03:18:18.591Z,81.21
2023-02-09T03:21:05.319Z,81.09
2023-02-09T03:23:47.478Z,81.14
2023-02-09T03:26:28.044Z,81.21
2023-02-09T03:28:57.408Z,80.76
2023-02-09T03:31:25.638Z,81.13
2023-02-09T03:33:52.840Z,80.94
2023-02-09T03:36:20.864Z,80.86
2023-02-09T03:38:48.150Z,80.80
2023-02-09T03:41:15.267Z,80.71
2023-02-09T03:44:01.027Z,81.22
2023-02-09T03:46:28.030Z,80.64
2023-02-09T03:48:55.023Z,81.24
2023-02-09T03:51:22.005Z,80.88
2023-02-09T03:53:48.957Z,81.25
2023-02-09T03:56:16.000Z,81.01
2023-02-09T03:58:42.951Z,81.21
2023-02-09T04:01:11.401Z,81.05
2023-02-09T04:03:39.886Z,81.12
2023-02-09T04:06:07.309Z,81.05
2023-02-09T04:08:34.285Z,81.79
2023-02-09T04:11:02.332Z,81.04
2023-02-09T04:13:29.654Z,81.40
2023-02-09T04:15:56.727Z,81.23
2023-02-09T04:18:23.772Z,81.01
2023-02-09T04:20:50.748Z,80.87
2023-02-09T04:23:20.047Z,80.76
2023-02-09T04:25:47.878Z,80.97
2023-02-09T04:28:14.902Z,81.18
2023-02-09T04:30:43.843Z,81.60
2023-02-09T04:33:11.388Z,81.53
2023-02-09T04:35:38.639Z,80.98
2023-02-09T04:38:05.542Z,81.58
2023-02-09T04:40:32.591Z,81.24
2023-02-09T04:42:59.519Z,81.65
2023-02-09T04:45:26.476Z,81.81
2023-02-09T04:47:53.429Z,81.36
2023-02-09T04:50:20.394Z,82.04
2023-02-09T04:52:47.340Z,81.90
2023-02-09T04:55:14.340Z,81.41
2023-02-09T04:57:59.529Z,81.86
2023-02-09T05:00:26.488Z,81.40
2023-02-09T05:02:54.978Z,81.29
2023-02-09T05:05:21.948Z,81.54
2023-02-09T05:07:48.980Z,81.43
2023-02-09T05:10:16.496Z,81.80
2023-02-09T05:12:43.477Z,81.39
2023-02-09T05:15:11.010Z,82.07
2023-02-09T05:17:37.916Z,81.51
2023-02-09T05:20:06.551Z,81.07
2023-02-09T05:22:33.826Z,81.69
2023-02-09T05:25:00.841Z,81.65
2023-02-09T05:27:27.757Z,81.75
2023-02-09T05:29:54.700Z,81.70
2023-02-09T05:32:21.803Z,81.63
2023-02-09T05:34:48.727Z,82.08
2023-02-09T05:37:15.773Z,81.75
2023-02-09T05:39:42.905Z,81.39
2023-02-09T05:42:16.531Z,80.98
2023-02-09T05:44:48.812Z,81.01
2023-02-09T05:47:20.101Z,81.22
2023-02-09T05:49:47.383Z,81.29
2023-02-09T05:52:16.732Z,81.37
2023-02-09T05:54:44.099Z,81.03
2023-02-09T05:57:11.070Z,81.36
2023-02-09T05:59:38.108Z,81.22
2023-02-09T06:02:05.190Z,81.36
2023-02-09T06:04:32.511Z,81.59
2023-02-09T06:06:59.763Z,81.31
2023-02-09T06:09:27.074Z,81.15
2023-02-09T06:11:54.107Z,81.01
2023-02-09T06:14:21.374Z,81.09
2023-02-09T06:16:48.555Z,80.88
2023-02-09T06:19:21.519Z,81.61
2023-02-09T06:21:48.904Z,81.53
2023-02-09T06:24:16.728Z,80.80
2023-02-09T06:26:43.881Z,81.43
2023-02-09T06:29:10.967Z,81.21
2023-02-09T06:31:38.439Z,80.74
2023-02-09T06:34:05.889Z,80.73
2023-02-09T06:36:33.789Z,81.23
2023-02-09T06:39:01.234Z,80.93
2023-02-09T06:41:28.591Z,80.81
2023-02-09T06:43:55.769Z,80.42
2023-02-09T06:46:22.782Z,81.10
2023-02-09T06:48:50.384Z,81.05
2023-02-09T06:51:18.108Z,80.74
2023-02-09T06:53:45.371Z,81.05
2023-02-09T06:56:13.723Z,80.73
2023-02-09T06:58:41.810Z,80.96
2023-02-09T07:01:12.615Z,80.32
2023-02-09T07:03:39.651Z,80.64
2023-02-09T07:06:10.578Z,81.50
2023-02-09T07:08:37.808Z,81.56
2023-02-09T07:11:08.704Z,80.98
2023-02-09T07:13:36.247Z,81.49
2023-02-09T07:16:06.114Z,81.10
2023-02-09T07:18:33.613Z,79.90
2023-02-09T07:21:08.631Z,79.19
2023-02-09T07:23:36.361Z,78.89
2023-02-09T07:26:10.804Z,77.87
2023-02-09T07:28:37.791Z,77.21
2023-02-09T07:31:08.346Z,76.50
2023-02-09T07:33:36.314Z,75.59
2023-02-09T07:36:05.420Z,75.13
2023-02-09T07:38:33.351Z,74.59
2023-02-09T07:41:02.208Z,73.66
2023-02-09T07:43:29.736Z,72.83
2023-02-09T07:46:05.942Z,71.72
2023-02-09T07:48:34.009Z,71.13
2023-02-09T07:51:02.177Z,70.38
2023-02-09T07:53:29.684Z,69.44
2023-02-09T07:55:56.893Z,68.74
2023-02-09T07:58:24.230Z,67.95
2023-02-09T08:00:51.735Z,67.11
2023-02-09T08:03:24.464Z,66.04
2023-02-09T08:06:40.670Z,64.02
2023-02-09T08:09:09.878Z,64.64
2023-02-09T08:11:59.201Z,63.07
2023-02-09T08:14:36.839Z,62.51
2023-02-09T08:17:20.509Z,62.23
2023-02-09T08:20:02.062Z,61.70
2023-02-09T08:22:33.752Z,60.86
2023-02-09T08:25:02.243Z,59.44
2023-02-09T08:27:29.793Z,58.32
2023-02-09T08:29:58.677Z,57.72
2023-02-09T08:32:25.658Z,56.00
2023-02-09T08:34:52.635Z,55.37
2023-02-09T08:37:19.539Z,54.92
2023-02-09T08:39:46.490Z,54.34
2023-02-09T08:42:13.464Z,54.00
2023-02-09T08:44:40.375Z,53.15
2023-02-09T08:47:07.533Z,52.47
2023-02-09T08:49:34.856Z,51.99
2023-02-09T08:52:02.003Z,51.42
2023-02-09T08:54:28.946Z,50.61
2023-02-09T08:56:55.910Z,50.37
2023-02-09T08:59:23.452Z,49.96
2023-02-09T09:01:50.368Z,49.38
2023-02-09T09:04:17.356Z,48.68
2023-02-09T09:06:44.304Z,48.67
2023-02-09T09:09:11.240Z,48.17
2023-02-09T09:11:38.153Z,48.16
2023-02-09T09:14:05.381Z,47.63
2023-02-09T09:16:32.535Z,47.83
2023-02-09T09:18:59.646Z,47.56
2023-02-09T09:21:26.625Z,47.41
2023-02-09T09:23:53.538Z,47.33
2023-02-09T09:26:20.561Z,47.23
2023-02-09T09:28:51.143Z,46.58
2023-02-09T09:31:19.840Z,46.79
2023-02-09T09:33:48.351Z,46.31
2023-02-09T09:36:15.493Z,46.21
2023-02-09T09:38:43.309Z,46.08
2023-02-09T09:41:32.048Z,45.38
2023-02-09T09:44:00.907Z,45.44
2023-02-09T09:46:50.359Z,44.59
2023-02-09T09:49:26.921Z,44.80
2023-02-09T09:52:29.180Z,43.89
2023-02-09T09:54:57.362Z,45.30
2023-02-09T09:57:32.565Z,45.18
2023-02-09T10:00:04.362Z,45.38
2023-02-09T10:02:34.030Z,45.01
2023-02-09T10:05:25.819Z,44.48
2023-02-09T10:08:07.918Z,45.17
2023-02-09T10:11:11.533Z,45.22
2023-02-09T10:13:44.517Z,45.04
2023-02-09T10:16:38.213Z,45.21
2023-02-09T10:19:19.391Z,45.15
2023-02-09T10:21:46.993Z,44.98
2023-02-09T10:24:24.965Z,44.32
2023-02-09T10:27:14.294Z,44.61
2023-02-09T10:29:41.792Z,45.37
2023-02-09T10:32:11.702Z,45.38
2023-02-09T10:34:38.547Z,45.43
2023-02-09T10:37:39.867Z,45.54
2023-02-09T10:40:19.338Z,45.73
2023-02-09T10:43:07.642Z,45.57
2023-02-09T10:45:38.732Z,45.98
2023-02-09T10:48:14.500Z,45.96
2023-02-09T10:51:07.956Z,46.34
2023-02-09T10:53:36.483Z,46.83
2023-02-09T10:56:07.442Z,46.68
2023-02-09T10:58:37.640Z,46.48
2023-02-09T11:01:10.173Z,46.28
2023-02-09T11:03:57.179Z,46.92
2023-02-09T11:06:24.421Z,47.27
2023-02-09T11:09:12.749Z,47.20
2023-02-09T11:11:41.917Z,47.77
2023-02-09T11:14:18.361Z,48.05
2023-02-09T11:17:22.394Z,47.91
2023-02-09T11:20:14.288Z,47.96
2023-02-09T11:23:25.990Z,47.70
2023-02-09T11:26:14.532Z,47.60
2023-02-09T11:29:53.115Z,48.29
2023-02-09T11:32:25.957Z,48.91
2023-02-09T11:35:08.288Z,49.24
2023-02-09T11:38:02.221Z,48.94
2023-02-09T11:40:53.969Z,49.41
2023-02-09T11:43:40.931Z,49.73
2023-02-09T11:46:19.828Z,50.13
2023-02-09T11:49:02.632Z,50.27
2023-02-09T11:51:31.981Z,50.49
2023-02-09T11:54:11.991Z,50.78
2023-02-09T11:56:50.832Z,50.72
2023-02-09T11:59:34.331Z,50.46
2023-02-09T12:02:47.457Z,50.74
2023-02-09T12:05:20.063Z,50.64
2023-02-09T12:08:25.187Z,50.63
2023-02-09T12:10:57.807Z,51.05
2023-02-09T12:13:51.760Z,50.80
2023-02-09T12:16:25.085Z,50.98
2023-02-09T12:18:55.054Z,50.87
2023-02-09T12:21:35.025Z,50.97
2023-02-09T12:24:02.331Z,50.71
2023-02-09T12:26:42.862Z,50.75
2023-02-09T12:29:39.122Z,50.69
2023-02-09T12:32:08.709Z,50.94
2023-02-09T12:34:51.326Z,51.13
2023-02-09T12:37:28.232Z,50.92
2023-02-09T12:40:18.380Z,51.10
2023-02-09T12:43:25.461Z,51.51
2023-02-09T12:46:15.835Z,51.41
2023-02-09T12:49:01.584Z,51.47
2023-02-09T12:51:56.284Z,51.69
2023-02-09T12:54:44.130Z,51.92
2023-02-09T12:57:17.351Z,51.61
2023-02-09T12:59:50.396Z,51.72
2023-02-09T13:02:50.676Z,51.90
2023-02-09T13:05:39.813Z,51.85
2023-02-09T13:08:18.490Z,51.90
2023-02-09T13:10:51.013Z,51.96
2023-02-09T13:13:48.341Z,52.11
2023-02-09T13:16:30.353Z,51.88
2023-02-09T13:19:03.101Z,52.05
2023-02-09T13:21:32.554Z,52.45
2023-02-09T13:24:13.472Z,52.17
2023-02-09T13:26:56.251Z,51.98
2023-02-09T13:29:31.836Z,52.14
2023-02-09T13:32:16.956Z,51.83
2023-02-09T13:35:19.305Z,52.06
2023-02-09T13:37:54.949Z,52.18
2023-02-09T13:40:32.340Z,52.27
2023-02-09T13:43:15.549Z,52.22
2023-02-09T13:45:56.895Z,52.20
2023-02-09T13:48:31.169Z,52.27
2023-02-09T13:51:04.055Z,52.47
2023-02-09T13:53:32.147Z,52.20
2023-02-09T13:56:00.623Z,52.39
2023-02-09T13:58:36.060Z,52.41
2023-02-09T14:01:12.059Z,52.57
2023-02-09T14:03:57.880Z,52.44
2023-02-09T14:06:37.900Z,52.67
2023-02-09T14:09:15.965Z,52.65
2023-02-09T14:12:52.749Z,52.07
2023-02-09T14:15:48.796Z,53.21
2023-02-09T14:18:56.856Z,53.13
2023-02-09T14:21:37.372Z,53.04
2023-02-09T14:24:20.534Z,53.20
2023-02-09T14:26:56.841Z,52.85
2023-02-09T14:29:33.200Z,53.14
2023-02-09T14:32:02.113Z,52.95
2023-02-09T14:34:35.582Z,53.43
2023-02-09T14:37:13.459Z,53.69
2023-02-09T14:40:04.713Z,53.55
2023-02-09T14:42:39.310Z,53.76
2023-02-09T14:45:15.383Z,53.67
2023-02-09T14:47:44.540Z,53.53
2023-02-09T14:50:16.124Z,53.75
2023-02-09T14:52:48.677Z,53.74
2023-02-09T14:55:25.532Z,54.27
2023-02-09T14:57:52.770Z,53.71
2023-02-09T15:00:26.056Z,53.78
2023-02-09T15:02:54.405Z,53.97
2023-02-09T15:05:23.406Z,53.94
2023-02-09T15:07:56.338Z,54.25
2023-02-09T15:10:29.630Z,54.16
2023-02-09T15:12:58.337Z,54.42
2023-02-09T15:15:26.717Z,54.49
2023-02-09T15:17:55.329Z,54.02
2023-02-09T15:20:26.888Z,54.54
2023-02-09T15:22:55.019Z,54.46
2023-02-09T15:25:24.472Z,54.65
2023-02-09T15:27:59.923Z,54.89
2023-02-09T15:30:35.015Z,54.83
2023-02-09T15:33:02.124Z,54.91
2023-02-09T15:35:29.936Z,55.14
2023-02-09T15:37:59.786Z,55.43
2023-02-09T15:40:55.247Z,55.60
2023-02-09T15:43:43.171Z,55.52
2023-02-09T15:46:10.962Z,56.08
2023-02-09T15:48:37.920Z,56.14
2023-02-09T15:51:05.181Z,56.28
2023-02-09T15:53:32.095Z,56.54
2023-02-09T15:55:59.892Z,56.52
2023-02-09T15:58:35.578Z,56.73
2023-02-09T16:01:03.670Z,56.96
2023-02-09T16:03:34.011Z,57.04
2023-02-09T16:06:07.240Z,57.01
2023-02-09T16:08:35.521Z,57.17
2023-02-09T16:11:02.910Z,57.41
2023-02-09T16:13:29.876Z,57.59
2023-02-09T16:16:05.125Z,58.09
2023-02-09T16:18:38.253Z,58.05
2023-02-09T16:21:06.617Z,58.37
2023-02-09T16:23:35.173Z,58.08
2023-02-09T16:26:05.175Z,58.31
2023-02-09T16:28:32.179Z,58.61
2023-02-09T16:30:59.316Z,58.82
2023-02-09T16:33:26.912Z,59.19
2023-02-09T16:35:57.767Z,59.55
2023-02-09T16:38:25.827Z,59.64
2023-02-09T16:40:55.100Z,59.58
2023-02-09T16:43:23.573Z,60.12
2023-02-09T16:46:02.817Z,59.98
2023-02-09T16:48:34.760Z,60.36
2023-02-09T16:51:02.338Z,60.46
2023-02-09T16:53:42.838Z,60.42
2023-02-09T16:56:12.842Z,60.68
2023-02-09T16:58:40.143Z,60.38
2023-02-09T17:01:34.463Z,60.50
2023-02-09T17:04:03.252Z,60.81
2023-02-09T17:06:30.701Z,61.32
2023-02-09T17:08:58.731Z,61.36
2023-02-09T17:11:28.165Z,60.99
2023-02-09T17:13:55.169Z,61.28
2023-02-09T17:16:25.856Z,61.23
2023-02-09T17:18:58.837Z,61.43
2023-02-09T17:21:31.411Z,61.76
2023-02-09T17:23:58.427Z,61.58
2023-02-09T17:26:25.590Z,61.83
2023-02-09T17:28:53.100Z,61.85
2023-02-09T17:31:43.761Z,61.64
2023-02-09T17:34:17.927Z,61.82
2023-02-09T17:36:45.095Z,61.97
2023-02-09T17:39:12.503Z,62.29
2023-02-09T17:41:45.296Z,61.93
2023-02-09T17:44:26.598Z,61.99
2023-02-09T17:47:03.432Z,62.18
2023-02-09T17:49:30.378Z,62.15
2023-02-09T17:51:57.472Z,62.60
2023-02-09T17:54:24.523Z,62.07
2023-02-09T17:56:51.487Z,62.55
2023-02-09T17:59:20.214Z,62.29
2023-02-09T18:01:50.388Z,62.39
2023-02-09T18:04:26.799Z,62.22
2023-02-09T18:06:55.463Z,62.60
2023-02-09T18:09:23.587Z,62.24
2023-02-09T18:11:59.925Z,63.08
2023-02-09T18:14:28.890Z,62.64
2023-02-09T18:16:56.151Z,63.21
2023-02-09T18:19:24.367Z,63.00
2023-02-09T18:22:02.204Z,63.13
2023-02-09T18:24:33.429Z,63.48
2023-02-09T18:27:00.726Z,63.38
2023-02-09T18:29:30.058Z,63.77
2023-02-09T18:32:02.742Z,63.69
2023-02-09T18:34:30.571Z,64.01
2023-02-09T18:36:57.623Z,63.80
2023-02-09T18:39:24.697Z,64.11
2023-02-09T18:41:54.694Z,63.58
2023-02-09T18:44:28.916Z,64.57
2023-02-09T18:46:57.652Z,64.90
2023-02-09T18:49:24.607Z,65.00
2023-02-09T18:51:52.226Z,64.62
2023-02-09T18:54:19.427Z,64.80
2023-02-09T18:56:46.386Z,64.40
2023-02-09T18:59:13.415Z,64.89
2023-02-09T19:01:41.041Z,64.75
2023-02-09T19:04:08.417Z,64.52
2023-02-09T19:06:35.683Z,65.23
2023-02-09T19:09:03.011Z,65.69
2023-02-09T19:11:30.620Z,64.89
2023-02-09T19:14:16.707Z,64.89
2023-02-09T19:16:43.858Z,65.03
2023-02-09T19:19:12.516Z,65.05
2023-02-09T19:21:39.670Z,65.32
2023-02-09T19:24:06.938Z,65.42
2023-02-09T19:26:34.278Z,65.96
2023-02-09T19:29:02.391Z,65.53
2023-02-09T19:31:29.525Z,65.74
2023-02-09T19:33:57.771Z,65.67
2023-02-09T19:36:27.757Z,66.26
2023-02-09T19:38:56.610Z,66.09
2023-02-09T19:41:25.495Z,66.03
2023-02-09T19:43:57.632Z,66.34
2023-02-09T19:46:26.637Z,66.48
2023-02-09T19:48:54.023Z,66.40
2023-02-09T19:51:21.751Z,66.43
2023-02-09T19:53:49.842Z,66.57
2023-02-09T19:56:20.909Z,66.74
2023-02-09T19:58:47.963Z,67.03
2023-02-09T20:01:15.458Z,66.86
2023-02-09T20:03:43.122Z,66.89
2023-02-09T20:06:13.619Z,67.61
2023-02-09T20:08:41.540Z,67.02
2023-02-09T20:11:16.849Z,67.76
2023-02-09T20:13:44.755Z,67.46
2023-02-09T20:16:18.789Z,67.35
2023-02-09T20:18:48.849Z,67.82
2023-02-09T20:21:21.788Z,67.94
2023-02-09T20:23:49.253Z,68.27
2023-02-09T20:26:29.635Z,68.33
2023-02-09T20:28:58.189Z,67.91
2023-02-09T20:31:34.970Z,67.97
2023-02-09T20:34:07.930Z,68.51
2023-02-09T20:36:38.760Z,68.67
2023-02-09T20:39:10.121Z,68.62
2023-02-09T20:41:37.505Z,68.73
2023-02-09T20:44:23.396Z,68.40
2023-02-09T20:46:56.692Z,68.85
2023-02-09T20:49:37.008Z,68.43
2023-02-09T20:52:04.292Z,68.54
2023-02-09T20:54:32.296Z,68.63
2023-02-09T20:56:59.639Z,68.72
2023-02-09T20:59:26.656Z,69.09
2023-02-09T21:01:53.801Z,69.02
2023-02-09T21:04:20.908Z,69.20
2023-02-09T21:06:48.164Z,69.35
2023-02-09T21:09:16.200Z,69.03
2023-02-09T21:11:43.538Z,69.64
2023-02-09T21:14:21.794Z,69.08
2023-02-09T21:16:58.309Z,69.43
2023-02-09T21:19:25.879Z,69.84
2023-02-09T21:21:53.341Z,69.55
2023-02-09T21:24:20.610Z,69.72
2023-02-09T21:26:47.819Z,69.46
2023-02-09T21:29:15.270Z,70.13
2023-02-09T21:31:42.452Z,69.51
2023-02-09T21:34:16.934Z,70.10
2023-02-09T21:36:44.048Z,69.77
2023-02-09T21:39:11.192Z,69.65
2023-02-09T21:41:56.980Z,70.08
2023-02-09T21:44:24.318Z,70.07
2023-02-09T21:46:51.739Z,70.17
2023-02-09T21:49:19.252Z,70.40
2023-02-09T21:51:46.696Z,70.66
2023-02-09T21:54:16.290Z,70.69
2023-02-09T21:56:44.235Z,70.52
2023-02-09T21:59:12.101Z,70.99
2023-02-09T22:01:40.910Z,70.51
2023-02-09T22:04:08.327Z,70.35
2023-02-09T22:06:35.746Z,70.63
2023-02-09T22:09:06.148Z,70.74
2023-02-09T22:11:33.909Z,70.69
2023-02-09T22:14:02.280Z,70.04
2023-02-09T22:16:29.730Z,70.07
2023-02-09T22:18:57.354Z,70.05
2023-02-09T22:21:24.671Z,69.88
2023-02-09T22:23:55.385Z,70.32
2023-02-09T22:26:23.073Z,70.04
2023-02-09T22:28:50.407Z,70.12
2023-02-09T22:31:22.586Z,70.15
2023-02-09T22:33:58.548Z,69.75
2023-02-09T22:36:27.506Z,69.96
2023-02-09T22:38:54.969Z,69.38
2023-02-09T22:41:24.155Z,69.10
2023-02-09T22:44:03.858Z,69.10
2023-02-09T22:46:35.735Z,69.31
2023-02-09T22:49:19.323Z,68.73
2023-02-09T22:51:48.934Z,68.75
2023-02-09T22:54:18.866Z,68.68
2023-02-09T22:56:46.997Z,68.47
2023-02-09T22:59:16.128Z,68.27
2023-02-09T23:01:44.338Z,68.00
2023-02-09T23:04:12.024Z,68.29
2023-02-09T23:06:42.399Z,68.34
2023-02-09T23:09:10.179Z,67.78
2023-02-09T23:11:38.011Z,67.65
2023-02-09T23:14:09.930Z,67.58
2023-02-09T23:16:40.747Z,67.53
2023-02-09T23:19:13.234Z,67.46
2023-02-09T23:21:45.361Z,67.44
2023-02-09T23:24:15.470Z,67.21
2023-02-09T23:26:43.145Z,67.23
2023-02-09T23:29:14.058Z,67.24
2023-02-09T23:31:42.971Z,67.26
2023-02-09T23:34:18.744Z,66.86
2023-02-09T23:36:46.481Z,66.82
2023-02-09T23:39:19.443Z,66.77
2023-02-09T23:41:47.087Z,66.72
2023-02-09T23:44:21.302Z,66.92
2023-02-09T23:46:48.955Z,66.47
2023-02-09T23:49:16.823Z,66.40
2023-02-09T23:51:46.865Z,66.40
2023-02-09T23:54:14.932Z,66.32
2023-02-09T23:56:43.202Z,66.70
2023-02-09T23:59:15.257Z,66.66
